Time;durP1;ratioP1;P1;durP2;ratioP2;P2;SDS_P1;SDS_P2;PMS_P1;PMS_P2;Temp;Humidity;BMP_temperature;BMP_pressure;BME280_temperature;BME280_humidity;BME280_pressure;Samples;Min_cycle;Max_cycle;Signal;HPM_P1;HPM_P2
2022/08/13 00:00:43;;;;;;;1.50;1.40;;;23.80;53.00;;;24.32;48.51;100993.44;5145127;28;20071;-68
2022/08/13 00:03:18;;;;;;;1.70;1.55;;;23.70;53.20;;;24.29;48.35;100988.19;5127652;28;20053;-67
2022/08/13 00:05:50;;;;;;;1.30;1.10;;;23.70;53.10;;;24.27;49.00;100992.69;5144839;28;20506;-67
2022/08/13 00:08:26;;;;;;;1.00;1.00;;;23.70;53.90;;;24.22;49.57;100991.88;5144941;28;20039;-68
2022/08/13 00:10:59;;;;;;;1.30;1.20;;;23.60;54.20;;;24.19;49.94;101002.56;5145212;28;20134;-68
2022/08/13 00:13:31;;;;;;;1.40;1.30;;;23.60;55.20;;;24.14;50.42;100996.47;5144737;28;20578;-68
2022/08/13 00:16:04;;;;;;;1.38;1.27;;;23.50;55.00;;;24.06;50.94;100991.25;5127475;28;20667;-67
2022/08/13 00:18:38;;;;;;;1.50;1.35;;;23.40;55.40;;;23.99;51.51;101005.59;5144821;28;20415;-68
2022/08/13 00:21:10;;;;;;;1.83;1.25;;;23.30;55.60;;;23.88;52.22;100997.81;5144799;28;20138;-67
2022/08/13 00:23:43;;;;;;;1.45;1.35;;;23.20;56.20;;;23.77;52.72;101000.63;5143608;28;20046;-67
2022/08/13 00:26:17;;;;;;;1.35;1.25;;;23.10;56.80;;;23.65;53.10;101006.16;5144377;28;20520;-67
2022/08/13 00:28:49;;;;;;;1.38;1.23;;;23.00;57.10;;;23.55;53.44;101001.84;5145238;28;20127;-67
2022/08/13 00:31:22;;;;;;;1.85;1.38;;;22.90;57.30;;;23.46;53.58;101001.97;5144687;28;20058;-67
2022/08/13 00:33:55;;;;;;;1.38;1.27;;;22.80;57.40;;;23.37;54.12;101000.34;5144808;28;20413;-66
2022/08/13 00:36:34;;;;;;;3.05;1.90;;;22.80;57.90;;;23.29;54.82;101002.25;5127109;28;20530;-67
2022/08/13 00:39:12;;;;;;;2.38;2.08;;;22.70;58.50;;;23.22;55.11;101001.44;5144849;28;20051;-68
2022/08/13 00:41:47;;;;;;;2.08;1.90;;;22.60;58.80;;;23.13;55.11;101000.69;5144794;28;20512;-67
2022/08/13 00:44:20;;;;;;;2.35;2.10;;;22.50;58.80;;;23.02;55.49;100999.06;5144753;28;20043;-68
2022/08/13 00:48:41;;;;;;;2.30;2.10;;;22.40;59.00;;;22.93;55.76;101009.78;5144320;28;20114;-67
2022/08/13 00:49:47;;;;;;;2.47;2.28;;;22.30;59.40;;;22.82;56.39;101003.72;5144501;28;20047;-66
2022/08/13 00:52:19;;;;;;;2.85;2.33;;;22.20;59.90;;;22.72;57.11;101010.03;5127157;28;20050;-68
2022/08/13 00:54:52;;;;;;;2.90;2.60;;;22.10;61.00;;;22.64;57.48;101006.59;5127232;28;20082;-68
2022/08/13 00:57:26;;;;;;;2.72;2.28;;;22.10;60.80;;;22.57;58.06;100999.59;5144209;28;20062;-68
2022/08/13 00:59:59;;;;;;;2.85;2.33;;;21.90;61.20;;;22.48;58.33;100997.88;5144294;28;20051;-68
2022/08/13 01:02:31;;;;;;;2.40;2.20;;;21.90;61.50;;;22.40;58.79;101008.59;5126812;28;20057;-67
2022/08/13 01:05:04;;;;;;;3.17;2.42;;;21.80;61.90;;;22.34;59.09;101002.47;5130764;28;20128;-67
2022/08/13 01:07:41;;;;;;;3.72;2.58;;;21.70;62.00;;;22.27;59.45;101000.78;5147834;28;20510;-68
2022/08/13 01:10:15;;;;;;;2.97;2.38;;;21.70;62.50;;;22.19;59.73;101000.88;5131004;28;20058;-68
2022/08/13 01:12:52;;;;;;;3.40;2.55;;;21.60;62.70;;;22.10;59.78;100998.28;5148131;28;20047;-68
2022/08/13 01:15:26;;;;;;;2.40;2.20;;;21.50;62.70;;;22.02;60.17;100997.44;5148163;28;20059;-69
2022/08/13 01:17:59;;;;;;;3.20;2.50;;;21.40;63.00;;;21.97;60.39;101001.91;5147833;28;20039;-67
2022/08/13 01:20:34;;;;;;;3.03;2.53;;;21.40;63.30;;;21.92;60.89;101004.63;5148003;28;20051;-67
2022/08/13 01:23:09;;;;;;;3.05;2.65;;;21.30;63.60;;;21.86;61.36;100994.94;5147957;28;20055;-67
2022/08/13 01:25:42;;;;;;;2.50;2.30;;;21.30;64.10;;;21.83;61.51;100986.97;5146699;28;20051;-67
2022/08/13 01:28:16;;;;;;;2.30;2.10;;;21.20;64.20;;;21.81;61.32;100991.44;5147771;28;20035;-66
2022/08/13 01:30:49;;;;;;;2.33;2.13;;;21.20;64.10;;;21.81;61.37;100988.78;5130329;28;20420;-67
2022/08/13 01:33:24;;;;;;;2.10;2.00;;;21.20;64.20;;;21.79;61.50;100992.34;5147906;28;20039;-67
2022/08/13 01:35:56;;;;;;;2.38;1.90;;;21.20;64.30;;;21.76;61.57;100993.22;5147477;28;20042;-67
2022/08/13 01:38:30;;;;;;;2.03;1.73;;;21.10;64.30;;;21.73;61.29;100997.69;5130642;28;20130;-67
2022/08/13 01:41:04;;;;;;;2.17;1.88;;;21.10;64.20;;;21.72;61.43;100993.28;5147595;28;20043;-67
2022/08/13 01:43:39;;;;;;;2.28;2.08;;;21.10;64.30;;;21.71;61.11;101000.34;5147691;28;20519;-68
2022/08/13 01:46:13;;;;;;;2.05;1.80;;;21.10;64.20;;;21.69;60.98;100999.47;5147347;28;20125;-68
2022/08/13 01:51:37;;;;;;;2.40;2.03;;;21.10;63.90;;;21.68;60.30;100995.06;5147458;28;20519;-67
2022/08/13 01:54:11;;;;;;;;;;;21.10;63.60;;;21.66;60.76;100991.56;5147947;28;20031;-68
2022/08/13 01:56:44;;;;;;;2.30;2.08;;;21.00;63.80;;;21.67;60.06;100998.63;5147064;28;20025;-68
2022/08/13 01:59:16;;;;;;;4.47;2.03;;;21.10;63.40;;;21.66;59.85;100999.53;5147459;28;20035;-72
2022/08/13 02:01:48;;;;;;;2.88;2.17;;;21.00;63.20;;;21.65;60.07;101000.41;5147000;28;20126;-67
2022/08/13 02:04:21;;;;;;;2.42;2.00;;;21.00;63.40;;;21.62;60.17;100995.13;5147350;28;20043;-69
2022/08/13 02:06:54;;;;;;;2.30;1.92;;;21.00;63.50;;;21.59;60.77;101005.75;5146840;28;20047;-68
2022/08/13 02:09:28;;;;;;;2.20;2.00;;;21.00;64.00;;;21.57;60.94;101002.22;5130099;28;20050;-68
2022/08/13 02:12:01;;;;;;;;;;;21.00;64.10;;;21.58;60.05;101001.31;5147630;28;20125;-66
2022/08/13 02:14:35;;;;;;;1.80;1.70;;;21.00;63.50;;;21.58;60.27;101003.97;5146441;28;20272;-67
2022/08/13 02:17:24;;;;;;;2.47;1.77;;;21.00;63.60;;;21.53;60.80;101005.81;5145284;28;20055;-69
2022/08/13 02:19:57;;;;;;;2.13;1.88;;;20.90;63.90;;;21.44;61.49;101005.84;5146980;28;20053;-68
2022/08/13 02:22:29;;;;;;;2.95;2.15;;;20.90;64.60;;;21.36;62.47;101004.13;5146939;28;20053;-68
2022/08/13 02:25:06;;;;;;;3.55;2.17;;;20.80;65.20;;;21.28;62.29;101000.66;5147074;28;20515;-67
2022/08/13 02:27:38;;;;;;;2.58;1.88;;;20.70;65.20;;;21.22;61.89;101011.25;5146593;28;20047;-67
2022/08/13 02:30:15;;;;;;;2.20;2.00;;;20.70;65.00;;;21.16;61.85;101010.41;5146896;28;20133;-67
2022/08/13 02:32:49;;;;;;;2.20;2.00;;;20.60;65.00;;;21.10;62.31;101011.31;5146770;28;20051;-67
2022/08/13 02:35:21;;;;;;;1.98;1.85;;;20.60;65.40;;;21.06;62.83;101004.25;5146811;28;20105;-67
2022/08/13 02:37:55;;;;;;;2.70;2.10;;;20.50;66.40;;;21.01;63.05;101012.25;5146699;28;20046;-68
2022/08/13 02:43:19;;;;;;;4.03;2.08;;;20.40;66.40;;;20.90;63.75;101013.16;5146556;28;20079;-67
2022/08/13 02:45:52;;;;;;;2.40;1.70;;;20.40;66.50;;;20.84;63.77;101004.34;5146369;28;20434;-67
2022/08/13 02:48:25;;;;;;;3.45;1.95;;;20.30;66.60;;;20.81;63.93;101000.84;5146249;28;20039;-67
2022/08/13 02:50:59;;;;;;;2.97;1.90;;;20.20;66.70;;;20.78;64.49;101008.81;5129007;28;20078;-67
2022/08/13 02:53:32;;;;;;;2.08;1.92;;;20.20;67.20;;;20.75;64.61;101009.69;5146474;28;20125;-66
2022/08/13 02:56:08;;;;;;;2.45;2.25;;;20.20;67.30;;;20.71;64.86;101010.59;5146044;28;20054;-69
2022/08/13 02:58:41;;;;;;;2.30;2.10;;;20.20;67.60;;;20.68;65.39;101007.97;5146511;28;20045;-67
2022/08/13 03:01:14;;;;;;;2.28;2.03;;;20.20;68.00;;;20.64;65.14;101000.91;5128966;28;20046;-67
2022/08/13 03:03:46;;;;;;;2.45;2.00;;;20.10;67.90;;;20.65;64.23;101004.44;5146287;28;20046;-67
2022/08/13 03:06:19;;;;;;;2.67;2.33;;;20.10;67.20;;;20.66;63.97;100999.13;5145948;28;20130;-67
2022/08/13 03:08:52;;;;;;;3.70;2.30;;;20.10;67.00;;;20.68;63.76;100992.06;5146042;28;20097;-67
2022/08/13 03:11:26;;;;;;;2.45;2.25;;;20.10;66.80;;;20.69;64.25;101003.53;5146155;28;20073;-67
2022/08/13 03:14:04;;;;;;;2.30;1.98;;;20.20;67.30;;;20.64;63.89;101000.91;5145913;28;20480;-68
2022/08/13 03:16:39;;;;;;;2.95;2.38;;;20.10;67.10;;;20.63;64.20;100999.16;5145762;28;20081;-68
2022/08/13 03:19:12;;;;;;;2.85;2.58;;;20.10;67.30;;;20.62;64.46;101005.34;5145698;28;20050;-68
2022/08/13 03:21:44;;;;;;;2.20;1.92;;;20.10;68.30;;;20.59;64.86;101002.69;5145816;28;20073;-68
2022/08/13 03:24:21;;;;;;;3.65;2.08;;;20.00;67.90;;;20.56;65.46;101008.88;5145914;28;20053;-67
2022/08/13 03:26:54;;;;;;;1.92;1.80;;;20.00;68.30;;;20.51;65.83;100999.19;5145278;28;20051;-67
2022/08/13 03:29:28;;;;;;;2.60;2.38;;;20.00;68.70;;;20.47;65.91;101005.34;5145764;28;20035;-67
2022/08/13 03:32:00;;;;;;;2.10;1.90;;;20.00;68.90;;;20.47;65.98;101005.34;5128182;28;20078;-68
2022/08/13 03:34:32;;;;;;;2.30;2.10;;;19.90;68.90;;;20.46;65.77;101004.47;5145696;28;20074;-67
2022/08/13 03:37:05;;;;;;;2.22;2.03;;;19.90;68.80;;;20.47;65.67;100997.41;5145362;28;20046;-66
2022/08/13 03:39:38;;;;;;;2.22;2.03;;;19.90;68.70;;;20.51;64.91;101005.34;5145628;28;20054;-67
2022/08/13 03:42:11;;;;;;;2.55;1.90;;;19.90;68.20;;;20.54;64.79;101007.13;5145357;28;20118;-69
2022/08/13 03:44:43;;;;;;;2.50;2.25;;;20.00;68.20;;;20.55;64.48;100999.16;5128166;28;20568;-67
2022/08/13 03:47:15;;;;;;;2.75;2.20;;;20.00;68.00;;;20.56;64.50;101008.88;5144981;28;20053;-68
2022/08/13 03:49:48;;;;;;;2.38;2.17;;;20.00;67.90;;;20.56;63.88;101008.00;5145323;28;20145;-68
2022/08/13 03:52:20;;;;;;;2.42;2.22;;;20.00;67.50;;;20.59;63.42;100997.38;5145151;28;20043;-68
2022/08/13 03:54:52;;;;;;;4.10;2.55;;;20.00;67.00;;;20.60;63.32;100996.50;5145309;28;20049;-68
2022/08/13 03:57:26;;;;;;;3.03;2.10;;;20.10;67.00;;;20.59;63.32;100997.38;5145080;28;20455;-68
2022/08/13 03:59:59;;;;;;;3.00;2.67;;;20.10;67.10;;;20.59;62.95;100994.72;5145182;28;20046;-67
2022/08/13 04:02:32;;;;;;;2.75;2.55;;;20.10;66.70;;;20.59;62.98;101002.69;5145100;28;20042;-67
2022/08/13 04:05:05;;;;;;;2.88;2.53;;;20.10;66.80;;;20.57;63.07;100999.16;5145140;28;20074;-69
2022/08/13 04:07:37;;;;;;;2.92;2.42;;;20.10;66.90;;;20.56;63.07;100992.09;5144737;28;20407;-67
2022/08/13 04:10:11;;;;;;;2.50;2.30;;;20.00;66.90;;;20.55;63.57;100995.66;5144872;28;20125;-67
2022/08/13 04:12:47;;;;;;;3.20;2.67;;;20.00;67.20;;;20.53;63.30;101000.03;5144884;28;20130;-68
2022/08/13 04:15:19;;;;;;;4.47;2.55;;;20.00;67.10;;;20.50;63.08;101003.59;5144717;28;20046;-67
2022/08/13 04:17:52;;;;;;;2.60;2.40;;;20.00;66.90;;;20.48;63.05;101001.84;5144440;28;20042;-68
2022/08/13 04:20:30;;;;;;;2.60;2.40;;;20.00;66.90;;;20.45;63.09;101001.84;5127459;28;20093;-67
2022/08/13 04:23:06;;;;;;;4.40;2.75;;;20.00;67.00;;;20.46;63.35;101008.88;5207961;23;20118;-73
2022/08/13 04:25:39;;;;;;;2.90;2.40;;;19.90;67.10;;;20.47;63.78;101008.00;5144289;28;20042;-73
2022/08/13 04:28:14;;;;;;;2.58;2.00;;;20.00;67.50;;;20.48;63.79;101015.09;5144567;28;20472;-73
2022/08/13 04:30:46;;;;;;;2.80;2.40;;;20.00;67.60;;;20.49;63.78;101000.97;5144675;28;20529;-73
2022/08/13 04:33:18;;;;;;;3.20;2.40;;;20.00;67.60;;;20.54;63.65;101020.38;5144854;28;20047;-74
2022/08/13 04:35:51;;;;;;;2.47;2.28;;;20.00;67.60;;;20.55;63.86;101012.41;5144966;28;20513;-73
2022/08/13 04:38:23;;;;;;;2.97;2.47;;;20.10;67.90;;;20.58;64.17;101007.09;5145363;28;20043;-73
2022/08/13 04:40:55;;;;;;;2.40;2.20;;;20.10;67.90;;;20.57;64.85;101009.75;5148926;28;20038;-72
2022/08/13 04:43:29;;;;;;;2.33;2.13;;;20.10;68.50;;;20.54;65.48;101009.78;5148060;28;20511;-73
2022/08/13 04:46:02;;;;;;;2.33;2.13;;;20.00;68.90;;;20.50;66.01;101014.19;5148796;28;20129;-72
2022/08/13 04:48:35;;;;;;;2.55;2.20;;;20.00;70.00;;;20.45;66.47;101013.31;5131305;28;20145;-74
2022/08/13 04:51:07;;;;;;;2.95;2.42;;;19.90;69.80;;;20.42;67.21;101009.78;5148936;28;20050;-73
2022/08/13 04:53:40;;;;;;;2.40;2.20;;;19.90;70.40;;;20.40;67.98;101011.50;5148590;28;20118;-73
2022/08/13 04:56:13;;;;;;;2.15;1.95;;;19.90;71.00;;;20.38;67.99;101014.16;5131140;28;20051;-72
2022/08/13 04:58:46;;;;;;;2.50;2.30;;;19.90;71.10;;;20.38;68.03;101016.81;5148574;28;20150;-72
2022/08/13 05:01:19;;;;;;;2.88;2.20;;;19.90;71.30;;;20.41;68.28;101018.56;5148503;28;20077;-73
2022/08/13 05:03:51;;;;;;;2.80;2.30;;;19.90;71.60;;;20.48;66.99;101017.75;5148442;28;20113;-73
2022/08/13 05:06:23;;;;;;;2.97;2.35;;;19.90;70.70;;;20.57;65.94;101017.69;5130776;28;20085;-73
2022/08/13 05:09:00;;;;;;;2.50;2.30;;;20.00;69.80;;;20.72;65.82;101030.88;5148418;28;20042;-73
2022/08/13 05:11:32;;;;;;;2.72;2.30;;;20.20;70.40;;;20.82;65.99;101029.97;5148360;28;20141;-73
2022/08/13 05:14:06;;;;;;;2.80;2.50;;;20.30;69.80;;;20.84;66.46;101025.56;5148372;28;20078;-72
2022/08/13 05:16:38;;;;;;;2.40;2.20;;;20.40;70.00;;;20.83;66.61;101034.38;5130287;28;20141;-73
2022/08/13 05:19:10;;;;;;;4.13;2.55;;;20.30;70.10;;;20.81;67.29;101041.47;5148151;28;20039;-73
2022/08/13 05:21:42;;;;;;;4.25;2.55;;;20.30;70.60;;;20.79;68.16;101032.63;5130588;28;20139;-73
2022/08/13 05:24:15;;;;;;;3.47;2.50;;;20.30;71.30;;;20.80;68.86;101034.41;5148195;28;20137;-74
2022/08/13 05:26:47;;;;;;;2.78;2.50;;;20.30;71.80;;;20.88;69.31;101034.38;5147856;28;20389;-73
2022/08/13 05:29:20;;;;;;;3.17;2.70;;;20.30;72.40;;;21.10;68.48;101037.81;5148226;28;20543;-72
2022/08/13 05:31:54;;;;;;;4.35;2.80;;;20.50;72.10;;;21.55;67.13;101038.50;5147964;28;20074;-72
2022/08/13 05:34:28;;;;;;;4.43;2.80;;;20.80;71.50;;;22.21;64.01;101034.47;5131004;28;20055;-73
2022/08/13 05:37:01;;;;;;;4.13;2.50;;;21.30;69.20;;;22.94;60.14;101046.09;5147682;28;20397;-73
2022/08/13 05:39:33;;;;;;;3.40;2.90;;;22.00;66.20;;;23.71;58.15;101042.44;5148029;28;20047;-73
2022/08/13 05:42:06;;;;;;;4.45;3.20;;;22.70;64.10;;;24.48;55.85;101050.03;5147738;28;20545;-73
2022/08/13 05:44:39;;;;;;;3.05;2.65;;;23.40;62.20;;;25.16;53.85;101043.34;5147957;28;20492;-73
2022/08/13 05:47:13;;;;;;;3.42;2.92;;;24.10;60.30;;;25.73;52.68;101050.13;5130162;28;20133;-74
2022/08/13 05:49:45;;;;;;;;;;;24.70;59.20;;;26.18;51.88;101048.09;5148091;28;20043;-73
2022/08/13 05:52:18;;;;;;;3.72;2.70;;;25.20;58.20;;;26.64;51.63;101059.41;5130288;28;19957;-72
2022/08/13 05:54:50;;;;;;;4.40;2.95;;;25.60;58.10;;;27.04;50.23;101051.13;5143535;28;20046;-74
2022/08/13 05:57:22;;;;;;;3.33;2.53;;;26.00;56.60;;;27.38;49.61;101050.13;5129966;28;20047;-72
2022/08/13 06:05:35;;;;;;;3.75;2.58;;;26.90;56.10;;;28.23;49.48;101063.44;5147529;28;20051;-72
2022/08/13 06:08:08;;;;;;;3.80;2.30;;;27.20;55.80;;;28.42;48.64;101062.84;5147382;28;20047;-72
2022/08/13 06:10:41;;;;;;;3.88;2.75;;;27.30;55.20;;;28.55;47.07;101064.19;5130260;28;20054;-73
2022/08/13 06:13:14;;;;;;;3.90;2.58;;;27.40;53.80;;;28.76;46.85;101063.44;5147361;28;20082;-73
2022/08/13 06:15:58;;;;;;;4.63;2.50;;;27.60;53.50;;;28.96;46.25;101064.53;5147262;28;20125;-72
2022/08/13 06:18:33;;;;;;;3.40;2.28;;;27.90;53.20;;;29.18;46.20;101065.47;5147458;28;20526;-74
2022/08/13 06:21:08;;;;;;;4.93;2.30;;;28.10;53.00;;;29.39;45.43;101051.19;5147371;28;20039;-74
2022/08/13 06:23:44;;;;;;;2.85;2.40;;;28.20;52.40;;;29.57;45.30;101064.88;5147245;28;20043;-72
2022/08/13 06:26:19;;;;;;;2.80;2.42;;;28.40;52.00;;;29.53;44.76;101061.44;5147171;28;20047;-73
2022/08/13 06:28:53;;;;;;;2.63;2.30;;;28.60;51.60;;;29.54;45.04;101056.94;5147078;28;20074;-73
2022/08/13 06:31:28;;;;;;;3.97;2.40;;;28.60;51.70;;;29.78;44.98;101053.25;5147058;28;20043;-74
2022/08/13 06:34:00;;;;;;;3.50;2.35;;;28.80;51.70;;;30.11;45.11;101066.25;5147043;28;20130;-72
2022/08/13 06:36:33;;;;;;;2.95;2.58;;;29.00;51.60;;;30.34;45.02;101068.00;5129599;28;20046;-72
2022/08/13 06:39:07;;;;;;;2.65;2.45;;;29.20;51.50;;;30.46;43.94;101064.78;5146946;28;20134;-74
2022/08/13 06:41:42;;;;;;;3.53;2.13;;;29.40;51.00;;;30.55;43.51;101069.75;5146772;28;20122;-74
2022/08/13 06:44:23;;;;;;;4.80;2.13;;;29.50;50.50;;;30.50;44.06;101077.13;5129760;28;20141;-74
2022/08/13 06:46:57;;;;;;;2.60;1.85;;;29.50;50.50;;;30.47;43.94;101075.47;5144793;28;20472;-73
2022/08/13 06:49:29;;;;;;;4.32;2.38;;;29.50;50.70;;;30.33;45.09;101083.25;5146768;28;20122;-73
2022/08/13 06:52:03;;;;;;;2.65;2.10;;;29.40;51.20;;;30.09;45.19;101081.56;5146845;28;20074;-75
2022/08/13 06:54:36;;;;;;;2.90;2.40;;;29.20;51.30;;;29.80;45.06;101070.22;5146703;28;20053;-74
2022/08/13 06:57:09;;;;;;;2.63;2.00;;;29.00;51.20;;;29.57;45.80;101071.13;5129595;28;20051;-73
2022/08/13 06:59:42;;;;;;;3.03;2.15;;;28.70;51.60;;;29.37;45.83;101068.31;5146847;28;20043;-72
2022/08/13 07:02:21;;;;;;;5.38;2.70;;;28.50;51.70;;;29.21;45.87;101068.00;5147451;28;20141;-72
2022/08/13 07:04:58;;;;;;;2.10;1.88;;;28.40;52.00;;;29.08;45.88;101072.09;5129823;28;20054;-73
2022/08/13 07:07:31;;;;;;;2.97;2.20;;;28.20;51.90;;;28.88;46.14;101072.81;5146673;28;20069;-75
2022/08/13 07:10:05;;;;;;;2.88;1.92;;;28.10;52.00;;;28.81;46.64;101073.97;5145249;28;20467;-75
2022/08/13 07:12:42;;;;;;;3.92;2.35;;;28.00;52.40;;;28.79;46.71;101076.72;5146236;28;20572;-58
2022/08/13 07:15:17;;;;;;;3.15;2.22;;;27.90;52.60;;;28.79;46.96;101068.66;5146516;28;20042;-72
2022/08/13 07:17:51;;;;;;;3.80;2.38;;;27.90;53.00;;;28.78;47.41;101072.28;5146279;28;20138;-68
2022/08/13 07:20:25;;;;;;;3.03;2.33;;;27.90;53.20;;;28.77;47.67;101078.59;5146526;28;20042;-72
2022/08/13 07:22:58;;;;;;;3.20;2.13;;;27.80;53.50;;;28.77;47.78;101073.22;5146457;28;20133;-72
2022/08/13 07:25:31;;;;;;;2.85;2.17;;;27.80;53.50;;;28.83;47.36;101074.81;5146445;28;20567;-74
2022/08/13 07:28:05;;;;;;;2.95;2.22;;;27.80;53.40;;;28.91;47.54;101064.66;5146077;28;20071;-74
2022/08/13 07:30:37;;;;;;;2.47;2.10;;;27.90;53.50;;;28.99;47.65;101069.78;5145987;28;20051;-75
2022/08/13 07:33:13;;;;;;;3.17;1.90;;;28.00;53.50;;;29.09;47.33;101071.19;5146113;28;20074;-74
2022/08/13 07:35:45;;;;;;;2.30;2.10;;;28.00;53.40;;;29.10;46.64;101072.94;5146135;28;20456;-75
2022/08/13 07:38:17;;;;;;;2.05;1.85;;;28.00;52.80;;;29.16;46.38;101073.59;5145919;28;20039;-73
2022/08/13 07:40:50;;;;;;;3.13;1.90;;;28.10;52.60;;;29.25;46.09;101076.84;5146024;28;20043;-73
2022/08/13 07:43:23;;;;;;;1.98;1.73;;;28.20;52.30;;;29.39;45.88;101078.03;5145942;28;20093;-75
2022/08/13 07:46:07;;;;;;;2.17;1.73;;;28.30;52.30;;;29.44;45.33;101073.38;5145913;28;20492;-73
2022/08/13 07:48:45;;;;;;;3.20;1.73;;;28.40;51.60;;;29.54;45.28;101073.03;5144529;28;20125;-74
2022/08/13 07:51:20;;;;;;;2.90;1.80;;;28.40;51.70;;;29.67;45.32;101071.66;5128501;28;20149;-73
2022/08/13 07:53:55;;;;;;;1.98;1.80;;;28.50;51.50;;;29.87;45.67;101071.72;5128580;28;20046;-75
2022/08/13 07:56:29;;;;;;;1.70;1.60;;;28.70;51.80;;;30.10;45.01;101061.84;5145629;28;20080;-73
2022/08/13 07:59:06;;;;;;;4.57;1.73;;;28.90;51.50;;;30.26;44.17;101069.19;5128159;28;20051;-76
2022/08/13 08:01:46;;;;;;;2.92;2.00;;;29.00;50.70;;;30.49;44.26;101070.88;5145594;28;20086;-73
2022/08/13 08:04:24;;;;;;;2.20;1.70;;;29.20;50.80;;;30.65;43.35;101070.22;5145622;28;20057;-74
2022/08/13 08:06:57;;;;;;;2.60;2.00;;;29.30;50.40;;;30.83;42.93;101072.09;5145450;28;20057;-76
2022/08/13 08:09:30;;;;;;;1.75;1.65;;;29.40;50.00;;;31.23;43.11;101076.56;5145575;28;20074;-75
2022/08/13 08:14:57;;;;;;;1.67;1.58;;;29.90;49.80;;;32.07;41.50;101077.88;5127474;28;20133;-74
2022/08/13 08:17:31;;;;;;;1.73;1.50;;;30.20;49.20;;;32.45;40.72;101077.78;5144737;28;20070;-74
2022/08/13 08:20:06;;;;;;;3.00;1.58;;;30.50;49.20;;;32.92;40.51;101078.00;5144636;28;20102;-73
2022/08/13 08:22:45;;;;;;;1.52;1.42;;;30.70;48.50;;;33.49;39.73;101072.19;5145002;28;20055;-74
2022/08/13 08:25:19;;;;;;;2.17;1.50;;;31.10;48.00;;;34.00;38.97;101072.88;5127796;28;20475;-72
2022/08/13 08:27:51;;;;;;;1.95;1.40;;;31.40;47.60;;;34.58;38.68;101072.13;5144943;28;20047;-72
2022/08/13 08:30:23;;;;;;;1.63;1.30;;;31.60;47.40;;;35.38;37.53;101084.25;5144937;28;20039;-74
2022/08/13 08:32:56;;;;;;;1.50;1.40;;;32.00;47.10;;;36.34;37.01;101077.91;5143702;28;20043;-73
2022/08/13 08:35:31;;;;;;;2.28;1.40;;;32.50;46.70;;;37.45;35.95;101077.28;5123651;29;20063;-73
2022/08/13 08:43:44;;;;;;;1.55;1.30;;;34.70;44.00;;;39.61;33.02;101080.44;5123391;29;20051;-73
2022/08/13 08:46:18;;;;;;;1.25;1.10;;;35.20;43.00;;;39.95;32.51;101074.88;5124561;29;20075;-73
2022/08/13 08:48:51;;;;;;;1.20;1.15;;;35.80;42.40;;;40.48;32.15;101068.59;5124606;29;20138;-73
2022/08/13 08:51:25;;;;;;;3.42;1.58;;;36.50;41.90;;;40.82;32.11;101074.69;5125034;29;20056;-74
2022/08/13 08:53:58;;;;;;;3.08;1.20;;;36.90;41.50;;;41.29;32.24;101077.81;5107583;29;20055;-73
2022/08/13 08:56:34;;;;;;;1.42;1.33;;;37.30;41.20;;;41.62;31.27;101076.63;5124607;29;20051;-74
2022/08/13 08:59:07;;;;;;;1.92;1.35;;;37.70;40.80;;;41.50;31.17;101073.16;5124674;29;20094;-72
2022/08/13 09:01:39;;;;;;;1.30;1.20;;;37.70;40.30;;;41.39;31.04;101073.25;5125223;29;20050;-74
2022/08/13 09:04:13;;;;;;;1.33;1.23;;;37.70;40.30;;;41.68;31.67;101067.88;5125067;29;20047;-75
2022/08/13 09:06:51;;;;;;;1.10;1.00;;;37.80;40.60;;;41.90;31.41;101061.28;5137215;28;20046;-73
2022/08/13 09:09:23;;;;;;;2.10;1.27;;;38.00;40.40;;;42.24;30.89;101062.59;5137881;28;20059;-74
2022/08/13 09:11:56;;;;;;;2.35;1.20;;;38.20;40.30;;;42.09;30.72;101053.06;5140799;28;20125;-74
2022/08/13 09:14:30;;;;;;;1.38;1.00;;;38.30;39.20;;;41.83;30.71;101055.50;5123697;29;20059;-72
2022/08/13 09:17:03;;;;;;;1.40;1.30;;;38.30;39.40;;;41.29;31.31;101053.19;5126213;28;20616;-74
2022/08/13 09:19:38;;;;;;;1.77;1.20;;;38.00;39.40;;;40.94;31.12;101059.97;5140786;28;20042;-70
2022/08/13 09:22:14;;;;;;;1.30;1.20;;;37.90;39.70;;;40.36;31.81;101044.03;5144248;28;20038;-73
2022/08/13 09:24:47;;;;;;;1.50;1.35;;;37.60;40.00;;;39.99;31.89;101049.06;5128635;28;20050;-74
2022/08/13 09:27:20;;;;;;;1.13;1.02;;;37.50;40.80;;;39.16;31.92;101046.88;5148323;28;20289;-72
2022/08/13 09:29:52;;;;;;;1.40;1.30;;;37.10;40.00;;;38.27;32.97;101040.28;5148046;28;20074;-73
2022/08/13 09:32:25;;;;;;;1.13;1.02;;;36.60;40.30;;;37.62;33.77;101029.78;5147999;28;20069;-73
2022/08/13 09:34:57;;;;;;;1.65;1.30;;;36.20;41.20;;;36.80;34.16;101033.09;5148152;28;20042;-73
2022/08/13 09:37:33;;;;;;;2.33;1.33;;;35.60;40.90;;;35.98;34.41;101035.13;5130476;28;20055;-72
2022/08/13 09:40:07;;;;;;;1.45;1.20;;;35.00;41.40;;;35.41;35.42;101024.47;5146974;28;20121;-73
2022/08/13 09:42:49;;;;;;;1.42;1.33;;;34.50;42.10;;;35.19;36.21;101024.09;5146114;28;20039;-72
2022/08/13 09:45:25;;;;;;;1.75;1.40;;;34.20;42.90;;;35.07;36.71;101023.03;5145321;28;20051;-74
2022/08/13 09:47:58;;;;;;;1.77;1.20;;;34.00;43.30;;;35.13;37.17;101017.22;5147680;28;20062;-72
2022/08/13 09:50:30;;;;;;;1.77;1.30;;;33.90;43.70;;;35.20;36.96;101007.72;5147611;28;20046;-73
2022/08/13 09:53:05;;;;;;;1.88;1.50;;;33.90;44.50;;;35.08;36.16;101017.56;5147851;28;20484;-72
2022/08/13 09:55:37;;;;;;;2.42;1.42;;;33.90;43.00;;;34.70;37.07;101014.53;5147660;28;20057;-73
2022/08/13 09:58:10;;;;;;;1.73;1.63;;;33.60;43.50;;;34.62;36.94;101006.00;5147382;28;20053;-72
2022/08/13 10:00:45;;;;;;;1.20;1.10;;;33.50;43.50;;;34.69;37.06;100998.38;5147431;28;20462;-72
2022/08/13 10:03:18;;;;;;;1.90;1.30;;;33.50;43.70;;;34.63;36.82;100994.22;5146956;28;20082;-72
2022/08/13 10:05:51;;;;;;;1.98;1.30;;;33.50;43.40;;;34.65;36.63;100994.13;5145425;28;20051;-73
2022/08/13 10:08:25;;;;;;;2.08;1.75;;;33.50;43.40;;;34.50;36.40;100995.97;5147000;28;20070;-72
2022/08/13 10:10:57;;;;;;;1.60;1.50;;;33.40;43.30;;;34.49;36.52;100983.38;5146973;28;20042;-74
2022/08/13 10:13:29;;;;;;;1.55;1.40;;;33.40;43.70;;;34.52;36.93;100977.78;5147241;28;20039;-73
2022/08/13 10:16:01;;;;;;;2.58;1.63;;;33.40;43.50;;;34.51;36.86;100981.47;5144856;28;20142;-72
2022/08/13 10:18:33;;;;;;;3.30;1.52;;;33.40;43.50;;;34.38;36.72;100975.03;5147084;28;20055;-71
2022/08/13 10:21:06;;;;;;;3.75;1.45;;;33.30;43.20;;;34.28;36.03;100970.19;5147114;28;20049;-72
2022/08/13 10:23:40;;;;;;;2.22;1.60;;;33.30;42.80;;;34.14;36.23;100978.28;5146706;28;20134;-72
2022/08/13 10:26:12;;;;;;;1.60;1.50;;;33.10;42.70;;;34.14;36.34;100967.44;5146946;28;20049;-72
2022/08/13 10:28:45;;;;;;;2.50;1.55;;;33.10;43.00;;;34.24;35.94;100968.63;5147219;28;20058;-72
2022/08/13 10:31:18;;;;;;;2.20;1.52;;;33.10;42.80;;;34.40;35.90;100956.88;5146589;28;20113;-73
2022/08/13 10:33:54;;;;;;;1.60;1.50;;;33.20;42.60;;;34.48;35.99;100954.56;5203283;23;20513;-64
2022/08/13 10:36:27;;;;;;;2.08;1.65;;;33.30;43.30;;;34.51;35.98;100949.84;5166172;28;20046;-65
2022/08/13 10:39:00;;;;;;;3.03;1.70;;;33.30;42.80;;;34.52;36.16;100945.31;5145624;28;20078;-66
2022/08/13 10:41:33;;;;;;;1.50;1.40;;;33.40;42.80;;;34.64;36.23;100949.94;5146654;28;20047;-65
2022/08/13 10:44:06;;;;;;;1.83;1.30;;;33.50;43.20;;;34.71;36.47;100940.47;5146436;28;20078;-65
2022/08/13 10:46:38;;;;;;;2.03;1.70;;;33.50;43.10;;;34.61;35.28;100950.13;5160141;28;20057;-69
2022/08/13 10:49:13;;;;;;;1.67;1.40;;;33.50;42.10;;;34.48;35.60;100938.34;5166574;28;20133;-66
2022/08/13 10:51:45;;;;;;;1.13;1.02;;;33.40;42.30;;;34.54;35.33;100940.66;5165503;28;20398;-65
2022/08/13 10:54:19;;;;;;;2.03;1.45;;;33.40;42.20;;;34.70;35.35;100932.44;5166299;28;20550;-67
2022/08/13 10:56:52;;;;;;;1.80;1.60;;;33.50;42.30;;;34.74;34.62;100929.44;5146954;28;20050;-68
2022/08/13 10:59:24;;;;;;;1.52;1.35;;;33.60;41.70;;;34.84;35.78;100927.00;5142250;28;20158;-64